Main page
METAR-TAF:

METAR-TAF

Airports :

Hillsdale Municipal Airport

Hillsdale, Michigan, United States

latitude: 41-55-17N, longitude: 084-35-09W, elevation: 1181 ft

Current weather observation

The report was made 23 minutes ago, at 10:15 UTC
Wind 3 mph from the West/Southwest
Temperature 37°F
Humidity 35%
Pressure 30.09 in. Hg
Visibility: 10 miles
Clear sky

METAR: KJYM 221015Z AUTO 24003KT 10SM CLR 03/M11 A3009 RMK AO2 T00301108

Time: 06:38 (10:38 UTC)


TAF: missing

Weather observations and forecasts of more than 4000 airports (METAR and TAF reports).

The available stations are represented by yellow and red dots on the map.

Hover mouse over dot to see the name of the station.

Then click to see weather observations and forecasts.

To change the map : click on the green buttons with a black cross to zoom in, on the green button with a dash to zoom out, or on the green arrows for adjacent maps.


METAR-TAF: